Waelder, TX (78959)

8:47 AM CDT on August 24, 2016 (GMT -0500)
Saturn | | Change Station

Elev 335 ft 29.57 °N, 97.37 °W | Updated 2 seconds ago

Fog
Fog
76.9 °F
Feels Like 78 °F
N
0.0
Wind Variable Wind from North
Gusts 0.0 mph

Today
High -- | Low -- °F
--% Chance of Precip.
Yesterday
High -- | Low -- °F
Precip. -- in
Pressure 30.12 in
Visibility 0.2 miles
Clouds Overcast 300 ft
Heat Index 78 °F
Dew Point 73 °F
Humidity 89%
Rainfall 0.00 in
Snow Depth Not available.
7:02 AM 7:59 PM
Waning Gibbous, 57% visible
METAR KT20 241335Z AUTO 00000KT 1/4SM FG OVC003 25/25 A3012 RMK AO2 T02470247
Pressure 30.12 in
Visibility 0.2 miles
Clouds Overcast 300 ft
Heat Index 78 °F
Dew Point 73 °F
Humidity 89%
Rainfall 0.00 in
Snow Depth Not available.
7:02 AM 7:59 PM
Waning Gibbous, 57% visible
METAR KT20 241335Z AUTO 00000KT 1/4SM FG OVC003 25/25 A3012 RMK AO2 T02470247

10-Day Weather Forecast

Almanac

Astronomy

Aug. 24, 2016 Rise Set
Actual Time
Civil Twilight
Nautical Twilight
Astronomical Twilight
Moon
Length of Visible Light
Length of Day
Tomorrow will be .
, % of the Moon is Illuminated

Today's Extremes

State Highs State Lows

Community

WunderPhotos

Upload Photos

1,934,598 photos uploaded!

WunderBlog® & News

Nearby

Air Quality

  Air Quality AQ Index Pollutant
Not available.

Snow Depth

Station Depth Elevation

Earthquake Activity

City Distance Mag. Time & Date
Minimum magnitude displayed is 2.5.

Coastal Water Temperatures

Place Temperature

Stations

Nearby Weather Stations

Station Location Temp. Windchill Dew Point Humidity Wind Precip. Elev Updated Type
                   

Watches & Warnings

There are currently no watches in effect.